Terminal Aerodrome Forecast
Issued by NWS

Home | Current Version | Previous Version | Text Only | Print | Product List | Glossary On
Versions: 1 2 3 4 5 6 7 8 9 10 11 12 13 14 15
000
FTUS42 TJSJ 252300
TAFKPK
TAF
TKPK 252322Z 2600/2624 09006KT P6SM FEW016
     FM261300 09011KT P6SM SCT020
     FM262300 08006KT P6SM FEW018
      AMD NOT SKED 2602/2611=

USA.gov is the U.S. government's official web portal to all federal, state and local government web resources and services.